Time;durP1;ratioP1;P1;durP2;ratioP2;P2;SDS_P1;SDS_P2;PMS_P1;PMS_P2;Temp;Humidity;BMP_temperature;BMP_pressure;BME280_temperature;BME280_humidity;BME280_pressure;Samples;Min_cycle;Max_cycle;Signal;HPM_P1;HPM_P2
2023/08/06 00:01:13;;;;;;;11.38;6.13;;;;;;;13.88;95.88;99513.41;10136198;28;20103;-80
2023/08/06 00:06:19;;;;;;;10.95;5.65;;;;;;;13.85;95.70;99505.66;10136654;28;20128;-79
2023/08/06 00:11:22;;;;;;;6.60;6.00;;;;;;;13.87;95.66;99509.00;10134758;29;20141;-79
2023/08/06 00:16:25;;;;;;;7.32;6.35;;;;;;;13.89;95.94;99503.44;10131819;29;20060;-80
2023/08/06 00:21:29;;;;;;;7.43;6.25;;;;;;;13.93;95.60;99493.97;10139359;29;20555;-80
2023/08/06 00:26:32;;;;;;;8.55;6.88;;;;;;;13.90;95.97;99495.19;10170871;29;20040;-78
2023/08/06 00:31:35;;;;;;;7.28;6.40;;;;;;;13.88;95.81;99494.50;10171978;28;20059;-79
2023/08/06 00:36:40;;;;;;;8.63;5.78;;;;;;;13.88;95.83;99502.59;10139385;29;20044;-79
2023/08/06 00:41:43;;;;;;;6.50;5.50;;;;;;;13.85;95.48;99497.53;10136150;29;20055;-80
2023/08/06 00:46:46;;;;;;;8.02;5.28;;;;;;;13.90;95.72;99488.94;10131192;29;20060;-79
2023/08/06 00:51:51;;;;;;;7.00;5.47;;;;;;;13.97;95.24;99481.84;10129594;28;20107;-80
2023/08/06 00:56:54;;;;;;;6.53;5.28;;;;;;;13.98;95.32;99469.19;10148110;28;20142;-79
2023/08/06 01:01:57;;;;;;;8.35;5.60;;;;;;;13.81;95.38;99468.34;10147209;29;20056;-79
2023/08/06 01:07:14;;;;;;;5.78;5.20;;;;;;;13.77;95.49;99467.84;10134674;29;20074;-79
2023/08/06 01:12:26;;;;;;;5.60;5.10;;;;;;;13.80;95.31;99455.88;10159350;29;20058;-78
2023/08/06 01:17:30;;;;;;;8.30;5.40;;;;;;;13.92;95.04;99441.84;10168885;29;20121;-79
2023/08/06 01:22:35;;;;;;;6.60;5.43;;;;;;;13.97;95.36;99438.66;10141912;28;20067;-79
2023/08/06 01:27:45;;;;;;;6.03;5.53;;;;;;;13.96;94.87;99436.97;10136395;28;20048;-79
2023/08/06 01:32:54;;;;;;;7.25;5.68;;;;;;;13.94;95.11;99436.31;10126862;29;20158;-80
2023/08/06 01:37:58;;;;;;;6.00;5.43;;;;;;;14.00;94.97;99434.78;10128792;29;20057;-80
2023/08/06 01:43:01;;;;;;;7.00;5.32;;;;;;;14.03;95.19;99419.06;10136983;29;20052;-79
2023/08/06 01:48:04;;;;;;;9.02;5.80;;;;;;;14.00;94.73;99422.13;10126671;28;20138;-79
2023/08/06 01:53:09;;;;;;;7.68;5.38;;;;;;;13.96;94.88;99420.78;10115925;29;20136;-77
2023/08/06 01:58:11;;;;;;;6.75;5.00;;;;;;;14.05;94.68;99411.66;10125682;29;20060;-78
2023/08/06 02:03:14;;;;;;;7.85;5.88;;;;;;;13.93;94.74;99408.47;10125644;29;20048;-79
2023/08/06 02:08:19;;;;;;;7.45;5.22;;;;;;;14.03;95.00;99404.72;10126660;29;20059;-79
2023/08/06 02:13:22;;;;;;;8.85;5.53;;;;;;;13.99;94.46;99400.66;10130070;28;20160;-79
2023/08/06 02:18:25;;;;;;;5.97;5.40;;;;;;;13.98;94.74;99393.59;10132158;28;20459;-79
2023/08/06 02:23:30;;;;;;;7.53;6.47;;;;;;;13.97;94.28;99400.03;10127770;29;20056;-79
2023/08/06 02:28:33;;;;;;;10.93;5.85;;;;;;;13.99;94.36;99398.84;10130365;29;21375;-78
2023/08/06 02:33:36;;;;;;;8.18;6.30;;;;;;;13.90;93.62;99386.34;10136709;29;20060;-79
2023/08/06 02:38:40;;;;;;;8.18;6.07;;;;;;;13.81;93.96;99381.97;10146458;29;20524;-79
2023/08/06 02:43:43;;;;;;;8.90;6.13;;;;;;;13.68;93.84;99369.81;10126434;28;20048;-80
2023/08/06 02:48:46;;;;;;;7.50;5.80;;;;;;;13.62;93.28;99366.97;10133615;28;20291;-79
2023/08/06 02:53:50;;;;;;;12.40;6.43;;;;;;;13.53;93.36;99366.13;10137038;28;20044;-79
2023/08/06 02:58:55;;;;;;;9.68;7.22;;;;;;;13.45;93.51;99366.97;10141864;29;20063;-79
2023/08/06 03:04:09;;;;;;;9.60;6.65;;;;;;;13.44;93.56;99351.81;10144858;29;20076;-79
2023/08/06 03:09:18;;;;;;;7.93;6.75;;;;;;;13.35;93.44;99344.66;10159589;28;20272;-79
2023/08/06 03:14:23;;;;;;;12.95;7.13;;;;;;;13.36;93.39;99340.97;10151508;28;20047;-80
2023/08/06 03:19:27;;;;;;;11.10;7.22;;;;;;;13.31;93.16;99343.31;10136642;29;20052;-79
2023/08/06 03:24:31;;;;;;;6.93;6.22;;;;;;;13.24;93.22;99339.59;10131912;29;20055;-79
2023/08/06 03:29:35;;;;;;;9.75;7.22;;;;;;;13.23;93.59;99343.31;10141991;29;20051;-79
2023/08/06 03:34:39;;;;;;;8.75;7.25;;;;;;;13.17;93.41;99330.50;10137219;29;20047;-80
2023/08/06 03:39:43;;;;;;;10.00;7.20;;;;;;;13.11;93.65;99332.03;10133343;28;20138;-80
2023/08/06 03:44:47;;;;;;;11.18;7.40;;;;;;;13.12;93.50;99322.06;10134636;29;20048;-80
2023/08/06 03:49:50;;;;;;;8.00;7.20;;;;;;;13.09;93.80;99319.72;10133224;29;21482;-79
2023/08/06 03:54:55;;;;;;;12.30;7.85;;;;;;;13.15;94.05;99319.88;10135521;29;20515;-79
2023/08/06 03:59:58;;;;;;;11.95;7.80;;;;;;;13.16;93.63;99309.94;10139711;29;21248;-80
2023/08/06 04:05:04;;;;;;;14.88;8.05;;;;;;;13.10;93.59;99305.22;10133201;28;20052;-80
2023/08/06 04:10:10;;;;;;;10.75;7.30;;;;;;;13.10;93.75;99305.22;10138601;28;20135;-79
2023/08/06 04:15:12;;;;;;;10.13;7.38;;;;;;;13.10;93.69;99310.59;10140135;29;20052;-80
2023/08/06 04:20:15;;;;;;;10.30;7.78;;;;;;;13.05;93.79;99308.41;10136129;29;20047;-81
2023/08/06 04:25:20;;;;;;;7.75;6.97;;;;;;;13.03;93.72;99319.38;10135291;29;20063;-80
2023/08/06 04:30:23;;;;;;;12.50;7.75;;;;;;;13.10;93.94;99319.53;10137327;29;21228;-81
2023/08/06 04:35:27;;;;;;;11.00;7.53;;;;;;;13.23;94.40;99319.88;10131577;28;20063;-81
2023/08/06 04:40:34;;;;;;;11.40;8.25;;;;;;;13.29;94.42;99315.69;10141344;29;20047;-80
2023/08/06 04:45:37;;;;;;;13.85;8.30;;;;;;;13.44;94.56;99326.69;10136813;29;20792;-81
2023/08/06 04:50:43;;;;;;;9.70;7.85;;;;;;;13.48;94.43;99326.16;10138782;29;20058;-81
2023/08/06 04:55:48;;;;;;;13.32;8.07;;;;;;;13.64;94.68;99329.88;10142231;29;20052;-80
2023/08/06 05:00:51;;;;;;;10.13;8.27;;;;;;;13.83;94.77;99334.91;10138654;28;20044;-76
2023/08/06 05:05:54;;;;;;;12.27;8.30;;;;;;;13.99;95.04;99333.19;10138758;28;20044;-80
2023/08/06 05:10:58;;;;;;;11.65;8.25;;;;;;;14.20;95.71;99332.63;10148691;29;20052;-81
2023/08/06 05:16:01;;;;;;;10.93;8.20;;;;;;;14.40;95.57;99327.69;10134618;29;20048;-80
2023/08/06 05:21:03;;;;;;;9.88;8.02;;;;;;;14.56;95.84;99322.22;10159998;29;20044;-81
2023/08/06 05:26:08;;;;;;;8.48;7.60;;;;;;;14.56;95.30;99331.19;10139549;29;20055;-81
2023/08/06 05:31:10;;;;;;;10.57;7.38;;;;;;;14.67;95.71;99326.41;10155369;28;20071;-80
2023/08/06 05:36:13;;;;;;;15.93;7.55;;;;;;;14.79;95.81;99331.25;10169880;29;21000;-79
2023/08/06 05:41:17;;;;;;;7.45;6.68;;;;;;;14.88;95.11;99328.50;10133357;29;21280;-79
2023/08/06 05:46:20;;;;;;;7.15;6.20;;;;;;;15.01;95.58;99340.41;10118650;29;20665;-80
2023/08/06 05:51:23;;;;;;;7.90;6.60;;;;;;;15.16;95.61;99331.50;10124655;29;20059;-80
2023/08/06 05:56:27;;;;;;;6.82;6.13;;;;;;;15.31;95.18;99331.59;10123419;28;20053;-81
2023/08/06 06:01:30;;;;;;;7.25;6.05;;;;;;;15.23;93.68;99329.78;10123957;28;20056;-78
2023/08/06 06:06:33;;;;;;;8.23;6.60;;;;;;;15.10;93.35;99333.06;10132955;29;20063;-80
2023/08/06 06:11:37;;;;;;;6.65;5.40;;;;;;;15.07;92.34;99327.19;10136920;29;20052;-81
2023/08/06 06:16:40;;;;;;;6.45;5.72;;;;;;;15.09;92.46;99326.00;10136309;29;20055;-80
2023/08/06 06:21:43;;;;;;;8.10;5.43;;;;;;;15.32;92.67;99331.41;10135037;29;20114;-80
2023/08/06 06:26:47;;;;;;;6.25;5.40;;;;;;;15.64;92.76;99335.75;10138668;28;20051;-80
2023/08/06 06:31:50;;;;;;;7.38;5.47;;;;;;;15.73;91.83;99330.25;10126328;29;20062;-80
2023/08/06 06:36:53;;;;;;;7.28;5.40;;;;;;;15.66;90.86;99332.84;10129820;29;20509;-81
2023/08/06 06:41:58;;;;;;;5.88;5.28;;;;;;;15.70;90.07;99328.75;10141675;29;20518;-79
2023/08/06 06:47:08;;;;;;;5.65;4.93;;;;;;;16.02;91.22;99329.47;10125262;29;20053;-79
2023/08/06 06:52:11;;;;;;;6.13;4.75;;;;;;;16.43;91.27;99326.31;10127742;28;20424;-80
2023/08/06 06:57:15;;;;;;;11.68;4.53;;;;;;;16.86;89.80;99327.25;10133032;29;20613;-79
2023/08/06 07:02:18;;;;;;;4.82;4.43;;;;;;;16.78;86.97;99317.41;10136598;29;20055;-80
2023/08/06 07:07:21;;;;;;;5.05;4.57;;;;;;;16.75;88.58;99325.06;10155900;29;20036;-79
2023/08/06 07:12:25;;;;;;;5.40;4.57;;;;;;;16.78;86.37;99321.94;10169677;29;20059;-79
2023/08/06 07:17:28;;;;;;;8.68;4.30;;;;;;;16.97;86.81;99331.34;10152212;29;20056;-78
2023/08/06 07:22:31;;;;;;;5.28;4.75;;;;;;;17.18;83.10;99334.13;10143368;29;20080;-78
2023/08/06 07:27:36;;;;;;;6.53;3.55;;;;;;;17.58;85.41;99320.09;10141470;29;20717;-78
2023/08/06 07:32:39;;;;;;;4.07;3.78;;;;;;;18.12;83.75;99322.19;10148322;29;20056;-81
2023/08/06 07:37:42;;;;;;;4.47;4.07;;;;;;;18.28;80.68;99319.16;10138490;29;20177;-80
2023/08/06 07:42:46;;;;;;;5.18;3.50;;;;;;;18.49;83.13;99320.13;10145177;29;20056;-80
2023/08/06 07:47:49;;;;;;;5.38;4.90;;;;;;;18.68;80.39;99322.09;10134425;28;20547;-79
2023/08/06 07:52:52;;;;;;;4.50;4.10;;;;;;;18.80;81.93;99314.22;10146858;28;20048;-80
2023/08/06 07:57:56;;;;;;;4.25;3.55;;;;;;;18.76;77.04;99310.19;10135136;28;20052;-78
2023/08/06 08:02:59;;;;;;;5.13;3.97;;;;;;;19.10;73.88;99312.00;10134662;29;20052;-78
2023/08/06 08:08:02;;;;;;;4.60;4.20;;;;;;;19.26;68.88;99309.94;10137972;29;20052;-80
2023/08/06 08:13:07;;;;;;;4.20;3.80;;;;;;;19.50;70.71;99305.75;10138866;29;20052;-77
2023/08/06 08:18:09;;;;;;;3.60;3.30;;;;;;;19.65;72.33;99307.25;10138385;28;20141;-79
2023/08/06 08:23:12;;;;;;;4.72;4.07;;;;;;;19.73;69.32;99310.84;10157726;28;20071;-80
2023/08/06 08:28:17;;;;;;;4.32;3.03;;;;;;;19.30;66.20;99314.75;10138546;29;20103;-78
2023/08/06 08:33:19;;;;;;;3.05;2.75;;;;;;;19.34;67.04;99313.28;10136801;29;20075;-78
2023/08/06 08:38:22;;;;;;;3.95;3.60;;;;;;;19.46;66.03;99311.63;10155738;29;20060;-80
2023/08/06 08:43:28;;;;;;;5.60;3.13;;;;;;;19.82;71.63;99309.56;10139390;28;20052;-78
2023/08/06 08:48:31;;;;;;;3.90;3.40;;;;;;;19.08;66.92;99294.19;10136897;29;20055;-79
2023/08/06 08:53:34;;;;;;;4.03;3.67;;;;;;;19.16;69.34;99307.59;10139891;29;20059;-79
2023/08/06 08:58:38;;;;;;;3.60;3.30;;;;;;;19.21;67.24;99313.28;10142645;28;20852;-78
2023/08/06 09:03:42;;;;;;;3.88;3.40;;;;;;;18.76;66.76;99315.66;10138454;29;20056;-79
2023/08/06 09:08:52;;;;;;;4.97;3.67;;;;;;;18.53;68.84;99316.78;10132662;28;20219;-80
2023/08/06 09:13:59;;;;;;;3.05;2.78;;;;;;;18.51;66.61;99305.28;10144968;28;20064;-79
2023/08/06 09:19:08;;;;;;;4.60;3.00;;;;;;;18.38;68.82;99317.97;10142531;29;20620;-79
2023/08/06 09:24:13;;;;;;;3.10;2.55;;;;;;;18.91;72.16;99310.06;10152175;28;20048;-80
2023/08/06 09:29:17;;;;;;;4.43;2.17;;;;;;;19.99;75.91;99305.34;10150018;29;20463;-80
2023/08/06 09:34:21;;;;;;;3.08;2.20;;;;;;;20.89;74.84;99299.19;10135552;28;20060;-78
2023/08/06 09:39:28;;;;;;;2.72;2.10;;;;;;;21.26;69.65;99299.44;10129889;28;20075;-77
2023/08/06 09:44:33;;;;;;;2.70;2.50;;;;;;;21.78;65.43;99302.84;10136940;28;21189;-78
2023/08/06 09:49:45;;;;;;;2.72;2.08;;;;;;;22.79;56.68;99285.13;10148590;28;20051;-77
2023/08/06 09:54:50;;;;;;;2.05;1.85;;;;;;;23.41;56.09;99282.97;10142116;28;20543;-78
2023/08/06 09:59:55;;;;;;;2.28;2.10;;;;;;;23.96;53.59;99287.34;10125267;28;20079;-76
2023/08/06 10:04:59;;;;;;;5.65;2.80;;;;;;;23.86;54.66;99287.09;10127320;28;20050;-78
2023/08/06 10:10:03;;;;;;;5.45;2.40;;;;;;;24.31;52.52;99280.97;10147461;28;20067;-78
2023/08/06 10:15:13;;;;;;;2.40;2.20;;;;;;;24.88;50.48;99272.84;10137703;29;20056;-78
2023/08/06 10:20:16;;;;;;;2.80;1.70;;;;;;;25.26;48.32;99273.28;10137143;28;20056;-77
2023/08/06 10:25:19;;;;;;;2.70;2.00;;;;;;;25.39;46.70;99268.28;10134923;29;20059;-78
2023/08/06 10:30:25;;;;;;;1.88;1.77;;;;;;;25.29;48.96;99265.38;10135877;28;20428;-77
2023/08/06 10:35:32;;;;;;;2.33;1.85;;;;;;;24.69;49.10;99261.22;10149330;29;20069;-78
2023/08/06 10:40:35;;;;;;;1.85;1.75;;;;;;;24.49;48.62;99256.16;10166468;29;20063;-78
2023/08/06 10:45:51;;;;;;;2.67;1.70;;;;;;;25.11;45.97;99257.34;10132698;28;20052;-79
2023/08/06 10:50:54;;;;;;;3.83;1.67;;;;;;;26.34;45.22;99253.81;10134053;28;20510;-78
2023/08/06 10:55:57;;;;;;;2.13;1.48;;;;;;;27.43;43.02;99252.81;10138975;28;21288;-80
2023/08/06 11:01:01;;;;;;;2.35;1.77;;;;;;;27.17;41.67;99248.97;10141447;28;20720;-78
2023/08/06 11:06:05;;;;;;;1.80;1.40;;;;;;;27.42;41.85;99247.56;10145140;29;20520;-77
2023/08/06 11:11:12;;;;;;;1.90;1.73;;;;;;;27.83;40.81;99237.66;10132961;29;20048;-80
2023/08/06 11:16:20;;;;;;;1.33;1.23;;;;;;;29.19;39.36;99218.34;10126275;28;20052;-78
2023/08/06 11:21:24;;;;;;;2.22;1.45;;;;;;;29.55;38.85;99216.41;10143148;28;20045;-79
2023/08/06 11:26:28;;;;;;;1.75;1.40;;;;;;;28.44;39.01;99221.47;10138215;29;20059;-78
2023/08/06 11:31:32;;;;;;;2.00;1.88;;;;;;;27.84;40.39;99228.31;10141892;29;20048;-78
2023/08/06 11:36:41;;;;;;;2.42;2.05;;;;;;;27.54;41.04;99231.69;10138181;28;20052;-78
2023/08/06 11:41:44;;;;;;;2.95;1.85;;;;;;;25.96;44.01;99230.72;10143034;28;20071;-78
2023/08/06 11:46:56;;;;;;;2.15;1.95;;;;;;;24.65;47.45;99223.50;10145732;28;21269;-78
2023/08/06 11:51:59;;;;;;;2.65;2.38;;;;;;;24.10;47.68;99233.88;10154213;28;20047;-79
2023/08/06 11:57:02;;;;;;;2.05;1.85;;;;;;;23.65;49.19;99211.75;10152549;29;20048;-78
2023/08/06 12:02:10;;;;;;;2.55;2.35;;;;;;;23.77;49.84;99218.06;10147833;29;20048;-78
2023/08/06 12:07:13;;;;;;;4.40;2.30;;;;;;;23.98;48.98;99211.16;10143777;29;20055;-78
2023/08/06 12:12:16;;;;;;;2.42;1.83;;;;;;;24.09;48.02;99196.56;10138021;29;20071;-78
2023/08/06 12:17:20;;;;;;;2.75;2.08;;;;;;;24.08;47.33;99194.91;10136258;29;20052;-78
2023/08/06 12:22:23;;;;;;;3.42;1.90;;;;;;;24.19;47.84;99187.75;10142953;28;20476;-78
2023/08/06 12:27:26;;;;;;;1.83;1.70;;;;;;;24.30;47.61;99192.34;10140166;28;20571;-78
2023/08/06 12:32:30;;;;;;;3.17;2.00;;;;;;;24.50;46.83;99180.16;10144549;28;20048;-78
2023/08/06 12:37:34;;;;;;;1.75;1.60;;;;;;;24.42;46.26;99184.09;10131250;28;20078;-78
2023/08/06 12:42:36;;;;;;;4.13;1.73;;;;;;;24.40;46.64;99182.69;10126624;28;20052;-78
2023/08/06 12:47:41;;;;;;;2.55;1.50;;;;;;;24.74;45.46;99187.19;10141442;28;20060;-77
2023/08/06 12:52:44;;;;;;;2.00;1.73;;;;;;;24.79;45.24;99182.84;10130835;28;20138;-78
2023/08/06 12:57:46;;;;;;;1.88;1.45;;;;;;;25.55;45.45;99180.59;10141203;28;20056;-78
2023/08/06 13:03:02;;;;;;;1.85;1.45;;;;;;;25.77;44.57;99178.72;10167047;29;20052;-79
2023/08/06 13:08:05;;;;;;;7.18;2.88;;;;;;;25.12;46.15;99182.94;10155823;28;20063;-79
2023/08/06 13:13:10;;;;;;;2.00;1.90;;;;;;;25.12;45.81;99180.22;10129841;29;20752;-78
2023/08/06 13:18:14;;;;;;;1.88;1.58;;;;;;;25.30;45.73;99181.03;10140857;29;20052;-79
2023/08/06 13:23:17;;;;;;;1.98;1.73;;;;;;;25.57;45.13;99175.69;10136135;29;20056;-78
2023/08/06 13:28:20;;;;;;;1.90;1.80;;;;;;;25.40;45.87;99181.19;10133806;28;20055;-78
2023/08/06 13:33:24;;;;;;;1.90;1.60;;;;;;;24.84;46.11;99182.97;10132899;28;20040;-79
2023/08/06 13:38:28;;;;;;;1.52;1.33;;;;;;;24.68;46.24;99184.59;10135931;29;20096;-79
2023/08/06 13:43:31;;;;;;;2.22;2.00;;;;;;;23.99;46.81;99181.81;10132773;29;20067;-78
2023/08/06 13:48:35;;;;;;;2.28;1.90;;;;;;;23.37;49.82;99196.03;10140040;29;20566;-78
2023/08/06 13:53:38;;;;;;;2.17;1.67;;;;;;;22.39;51.46;99192.56;10134755;28;20130;-78
2023/08/06 13:58:41;;;;;;;2.88;2.15;;;;;;;22.14;50.83;99192.69;10143293;28;20052;-79
2023/08/06 14:03:45;;;;;;;4.38;2.00;;;;;;;21.30;54.39;99197.72;10144687;28;20041;-77
2023/08/06 14:08:48;;;;;;;3.78;2.50;;;;;;;19.89;65.86;99226.75;10146417;29;20419;-78
2023/08/06 14:13:51;;;;;;;7.72;3.30;;;;;;;17.96;79.29;99236.38;10141846;29;20044;-76
2023/08/06 14:18:55;;;;;;;5.57;3.85;;;;;;;17.00;87.02;99249.59;10128979;29;20056;-77
2023/08/06 14:23:58;;;;;;;6.55;4.45;;;;;;;16.56;93.12;99256.00;10137083;28;20055;-78
2023/08/06 14:29:01;;;;;;;6.38;4.93;;;;;;;16.77;94.11;99263.34;10135847;28;20056;-78
2023/08/06 14:34:06;;;;;;;10.18;5.85;;;;;;;16.91;96.55;99277.88;10147441;29;20102;-76
2023/08/06 14:39:08;;;;;;;6.32;4.43;;;;;;;16.33;97.79;99286.78;10155706;28;20048;-77
2023/08/06 14:44:11;;;;;;;5.88;5.30;;;;;;;16.46;99.38;99285.31;10140293;29;20044;-77
2023/08/06 14:49:15;;;;;;;4.88;4.40;;;;;;;15.99;96.79;99300.88;10136323;28;20052;-78
2023/08/06 14:54:18;;;;;;;7.57;5.43;;;;;;;16.16;97.79;99301.53;10139126;28;20420;-77
2023/08/06 14:59:21;;;;;;;6.75;5.57;;;;;;;16.23;99.85;99324.13;10134959;29;20047;-77
2023/08/06 15:04:25;;;;;;;7.03;5.40;;;;;;;16.38;98.24;99332.31;10130302;29;20055;-77
2023/08/06 15:09:28;;;;;;;4.40;4.00;;;;;;;16.09;96.37;99333.94;10138320;29;20058;-77
2023/08/06 15:14:31;;;;;;;4.25;3.83;;;;;;;16.98;99.61;99338.47;10135434;29;20678;-77
2023/08/06 15:19:35;;;;;;;3.35;2.88;;;;;;;16.76;95.83;99349.28;10132746;28;21199;-78
2023/08/06 15:24:41;;;;;;;2.75;2.50;;;;;;;17.15;96.36;99349.97;10129396;29;20499;-78
2023/08/06 15:29:44;;;;;;;2.30;2.10;;;;;;;17.03;94.52;99358.56;10132433;29;21267;-78
2023/08/06 15:34:49;;;;;;;3.80;2.35;;;;;;;16.61;94.94;99364.72;10134195;28;20136;-77
2023/08/06 15:39:52;;;;;;;2.38;2.17;;;;;;;16.03;93.46;99367.19;10132307;29;20055;-78
2023/08/06 15:44:55;;;;;;;2.53;2.33;;;;;;;15.89;95.88;99355.31;10133301;28;20044;-77
2023/08/06 15:49:59;;;;;;;5.20;2.60;;;;;;;16.02;99.21;99362.81;10133534;29;20048;-79
2023/08/06 15:55:05;;;;;;;3.58;3.22;;;;;;;15.85;98.99;99364.84;10132429;29;20052;-77
2023/08/06 16:00:09;;;;;;;3.55;2.20;;;;;;;14.97;95.58;99371.50;10130769;29;20079;-76
2023/08/06 16:05:16;;;;;;;3.97;2.70;;;;;;;14.99;95.96;99374.88;10134772;29;20496;-77
2023/08/06 16:10:19;;;;;;;2.95;2.60;;;;;;;15.03;95.20;99388.91;10127587;29;20049;-78
2023/08/06 16:15:22;;;;;;;2.15;2.00;;;;;;;14.76;93.40;99406.44;10129874;28;20416;-77
2023/08/06 16:20:26;;;;;;;2.78;2.17;;;;;;;14.46;93.90;99411.59;10130814;29;20052;-78
2023/08/06 16:25:29;;;;;;;2.85;2.55;;;;;;;14.40;94.55;99409.59;10128158;28;20059;-78
2023/08/06 16:30:32;;;;;;;3.97;3.60;;;;;;;14.78;94.51;99382.75;10135012;29;20151;-77
2023/08/06 16:35:36;;;;;;;5.07;3.90;;;;;;;14.99;94.91;99383.00;10149445;28;20076;-77
2023/08/06 16:40:39;;;;;;;5.10;4.60;;;;;;;15.03;94.66;99387.03;10177697;28;20055;-78
2023/08/06 16:45:42;;;;;;;5.28;4.35;;;;;;;15.03;94.00;99407.84;10148128;29;20052;-77
2023/08/06 16:50:48;;;;;;;4.45;4.07;;;;;;;15.10;95.18;99446.66;10133134;29;20598;-78
2023/08/06 16:55:53;;;;;;;4.80;4.38;;;;;;;15.57;95.13;99477.38;10133383;28;20520;-78
2023/08/06 17:00:59;;;;;;;25.55;4.70;;;;;;;15.55;94.69;99458.63;10128058;28;20059;-77
2023/08/06 17:06:04;;;;;;;8.40;4.50;;;;;;;14.82;99.15;99455.22;10128895;28;20227;-75
2023/08/06 17:11:07;;;;;;;8.32;4.68;;;;;;;14.90;97.34;99459.78;10122121;29;20052;-74
2023/08/06 17:16:11;;;;;;;4.55;3.42;;;;;;;14.94;96.52;99446.75;10111600;29;20048;-76
2023/08/06 17:21:16;;;;;;;4.57;4.03;;;;;;;14.91;95.84;99452.50;10116166;29;20626;-75
2023/08/06 17:26:20;;;;;;;6.93;3.90;;;;;;;14.76;95.96;99469.44;10117246;29;20062;-75
2023/08/06 17:31:23;;;;;;;4.50;3.95;;;;;;;14.35;97.44;99469.50;10112561;29;20190;-75
2023/08/06 17:36:27;;;;;;;4.40;3.22;;;;;;;14.03;97.82;99466.84;10128295;29;20059;-75
2023/08/06 17:41:30;;;;;;;4.38;3.17;;;;;;;13.86;97.64;99485.72;10125047;29;20493;-75
2023/08/06 17:46:33;;;;;;;19.00;4.63;;;;;;;13.66;100.00;99487.06;10119436;29;20052;-73
2023/08/06 17:51:37;;;;;;;5.32;3.80;;;;;;;13.89;100.00;99482.69;10120991;29;20051;-75
2023/08/06 17:56:40;;;;;;;5.03;2.92;;;;;;;13.82;98.79;99491.63;10121133;29;20044;-74
2023/08/06 18:01:43;;;;;;;5.00;3.03;;;;;;;13.96;97.68;99500.91;10127343;28;20063;-74
2023/08/06 18:06:48;;;;;;;3.03;2.78;;;;;;;13.94;97.29;99501.94;10130471;29;20048;-76
2023/08/06 18:11:50;;;;;;;4.45;3.80;;;;;;;14.15;96.31;99514.94;10132690;29;20457;-77
2023/08/06 18:16:53;;;;;;;5.25;3.47;;;;;;;14.11;96.08;99515.44;10127375;29;20051;-76
2023/08/06 18:21:59;;;;;;;3.95;3.45;;;;;;;14.08;95.81;99519.31;10120723;29;20056;-76
2023/08/06 18:27:02;;;;;;;5.05;3.42;;;;;;;14.05;97.05;99526.91;10119384;28;20095;-76
2023/08/06 18:32:06;;;;;;;4.05;3.42;;;;;;;13.91;96.37;99531.97;10120157;28;20051;-76
2023/08/06 18:37:10;;;;;;;3.60;2.92;;;;;;;13.77;100.00;99532.63;10124862;29;20137;-75
2023/08/06 18:42:13;;;;;;;4.57;3.00;;;;;;;13.78;100.00;99542.41;10122422;29;20056;-75
2023/08/06 18:47:16;;;;;;;7.07;3.30;;;;;;;13.54;99.98;99550.44;10128446;29;20056;-75
2023/08/06 18:52:21;;;;;;;2.17;1.55;;;;;;;13.23;100.00;99559.03;10155091;29;20063;-74
2023/08/06 18:57:23;;;;;;;4.38;1.77;;;;;;;12.85;100.00;99565.75;10154479;28;20059;-74
2023/08/06 19:02:26;;;;;;;5.07;1.58;;;;;;;12.64;100.00;99569.63;10122853;29;20056;-74
2023/08/06 19:07:31;;;;;;;2.22;1.67;;;;;;;12.83;99.36;99547.03;10128449;29;20076;-75
2023/08/06 19:12:33;;;;;;;4.57;2.92;;;;;;;12.70;100.00;99527.75;10121139;29;20048;-74
2023/08/06 19:17:36;;;;;;;6.55;4.10;;;;;;;12.97;100.00;99522.19;10121732;29;20036;-75
2023/08/06 19:22:41;;;;;;;4.40;3.58;;;;;;;13.13;100.00;99536.75;10119222;28;20187;-75
2023/08/06 19:27:44;;;;;;;6.88;5.82;;;;;;;13.74;100.00;99551.84;10130325;28;20063;-77
2023/08/06 19:32:46;;;;;;;7.55;6.28;;;;;;;13.93;100.00;99545.28;10132479;29;20515;-78
2023/08/06 19:37:51;;;;;;;10.48;7.05;;;;;;;14.13;99.56;99546.66;10142635;29;20059;-78
2023/08/06 19:42:54;;;;;;;11.52;8.68;;;;;;;14.16;99.25;99550.91;10147633;28;20052;-77
2023/08/06 19:47:57;;;;;;;12.65;9.68;;;;;;;13.80;100.00;99551.19;10137890;28;20048;-76
2023/08/06 19:53:01;;;;;;;16.10;11.63;;;;;;;13.92;100.00;99551.69;10137960;28;20131;-77
2023/08/06 19:58:04;;;;;;;17.38;13.25;;;;;;;13.87;100.00;99551.34;10131312;28;20384;-78
2023/08/06 20:03:09;;;;;;;15.60;13.65;;;;;;;13.77;100.00;99566.84;10129584;29;20047;-76
2023/08/06 20:08:13;;;;;;;20.25;15.88;;;;;;;13.79;100.00;99562.97;10130368;28;20059;-77
2023/08/06 20:13:16;;;;;;;20.15;17.88;;;;;;;13.98;100.00;99564.53;10129232;29;20428;-76
2023/08/06 20:18:22;;;;;;;23.75;17.95;;;;;;;13.79;100.00;99567.53;10129242;28;20056;-76
2023/08/06 20:23:27;;;;;;;23.52;19.85;;;;;;;13.83;100.00;99567.03;10130262;28;20057;-76
2023/08/06 20:28:31;;;;;;;23.58;18.38;;;;;;;13.89;100.00;99581.72;10130361;29;21210;-76
2023/08/06 20:33:35;;;;;;;21.70;16.70;;;;;;;13.63;100.00;99579.97;10131840;29;20052;-75
2023/08/06 20:38:39;;;;;;;21.38;17.65;;;;;;;13.58;100.00;99593.13;10130955;29;20168;-75
2023/08/06 20:43:42;;;;;;;21.90;18.08;;;;;;;13.78;100.00;99590.97;10129559;28;20416;-75
2023/08/06 20:48:45;;;;;;;22.20;18.27;;;;;;;13.47;100.00;99599.66;10132903;28;20490;-76
2023/08/06 20:53:49;;;;;;;22.08;17.70;;;;;;;13.80;100.00;99598.94;10134767;29;20060;-75
2023/08/06 20:58:52;;;;;;;22.83;17.45;;;;;;;13.38;100.00;99614.09;10135519;29;20066;-76
2023/08/06 21:03:55;;;;;;;20.42;16.63;;;;;;;13.47;100.00;99615.00;10133575;29;20068;-76
2023/08/06 21:08:59;;;;;;;16.83;14.95;;;;;;;13.30;100.00;99613.16;10136632;28;20059;-76
2023/08/06 21:14:02;;;;;;;22.73;16.15;;;;;;;13.58;100.00;99609.31;10152724;28;20070;-77
2023/08/06 21:19:05;;;;;;;19.48;16.00;;;;;;;13.59;98.92;99626.34;10129932;29;20075;-76
2023/08/06 21:24:09;;;;;;;17.65;14.43;;;;;;;13.51;100.00;99629.00;10164458;28;20052;-77
2023/08/06 21:29:12;;;;;;;20.52;14.48;;;;;;;13.78;97.51;99638.72;10148903;29;20517;-77
2023/08/06 21:34:16;;;;;;;20.05;17.00;;;;;;;13.47;100.00;99647.38;10131002;29;20048;-77
2023/08/06 21:39:20;;;;;;;29.50;16.88;;;;;;;13.82;97.99;99638.25;10127261;28;20055;-77
2023/08/06 21:44:23;;;;;;;21.17;12.40;;;;;;;13.55;98.09;99649.25;10143626;28;20062;-76
2023/08/06 21:49:28;;;;;;;18.30;12.00;;;;;;;13.63;98.41;99650.16;10136684;29;20048;-77
2023/08/06 21:54:32;;;;;;;18.67;9.55;;;;;;;13.13;100.00;99656.22;10137018;29;20060;-77
2023/08/06 21:59:35;;;;;;;17.88;9.32;;;;;;;13.24;99.89;99664.03;10129295;29;20087;-77
2023/08/06 22:04:37;;;;;;;14.57;9.38;;;;;;;13.10;100.00;99661.09;10128572;28;20056;-77
2023/08/06 22:09:42;;;;;;;14.57;9.07;;;;;;;13.54;97.31;99672.69;10134834;28;20427;-78
2023/08/06 22:14:44;;;;;;;15.52;9.02;;;;;;;13.29;98.19;99677.06;10119540;29;20060;-78
2023/08/06 22:19:48;;;;;;;15.23;7.78;;;;;;;13.35;97.31;99679.13;10131569;29;20055;-76
2023/08/06 22:24:53;;;;;;;14.38;7.55;;;;;;;13.11;99.68;99663.66;10127288;29;20083;-77
2023/08/06 22:29:56;;;;;;;16.60;5.90;;;;;;;13.10;98.48;99679.97;10116404;28;20187;-76
2023/08/06 22:34:58;;;;;;;12.30;6.25;;;;;;;12.80;99.36;99663.22;10137321;28;20056;-75
2023/08/06 22:40:04;;;;;;;10.13;5.50;;;;;;;13.10;98.37;99688.06;10131921;28;20056;-77
2023/08/06 22:45:08;;;;;;;8.27;5.25;;;;;;;13.21;97.07;99674.31;10127968;29;20075;-76
2023/08/06 22:50:11;;;;;;;11.45;6.47;;;;;;;13.16;97.09;99668.53;10130113;29;20052;-77
2023/08/06 22:55:15;;;;;;;12.68;5.63;;;;;;;13.02;96.84;99673.50;10123463;29;20050;-77
2023/08/06 23:00:38;;;;;;;14.95;5.72;;;;;;;12.98;97.64;99679.38;10139509;28;20048;-77
2023/08/06 23:05:41;;;;;;;10.98;5.65;;;;;;;12.82;97.45;99694.41;10129715;28;20532;-76
2023/08/06 23:10:45;;;;;;;7.90;5.13;;;;;;;13.24;95.64;99687.47;10136016;29;20101;-76
2023/08/06 23:15:48;;;;;;;10.55;5.47;;;;;;;13.25;95.39;99690.03;10132660;29;20056;-76
2023/08/06 23:20:51;;;;;;;10.93;5.07;;;;;;;13.22;95.71;99693.03;10129382;29;20048;-76
2023/08/06 23:25:55;;;;;;;9.88;4.53;;;;;;;13.25;94.01;99689.19;10121723;29;20049;-76